createdAt,value
2018-07-08T00:00:10.135Z,58.60
2018-07-08T00:00:43.428Z,58.70
2018-07-08T00:01:16.069Z,58.70
2018-07-08T00:01:49.369Z,58.60
2018-07-08T00:02:21.915Z,58.60
2018-07-08T00:02:54.417Z,58.60
2018-07-08T00:03:27.379Z,58.70
2018-07-08T00:04:00.007Z,58.70
2018-07-08T00:04:32.530Z,58.30
2018-07-08T00:05:05.477Z,58.70
2018-07-08T00:05:38.524Z,58.70
2018-07-08T00:06:11.564Z,58.60
2018-07-08T00:06:44.604Z,58.70
2018-07-08T00:07:17.636Z,59.20
2018-07-08T00:07:50.677Z,58.70
2018-07-08T00:08:23.710Z,58.80
2018-07-08T00:08:56.768Z,58.90
2018-07-08T00:09:29.811Z,58.80
2018-07-08T00:10:02.856Z,58.90
2018-07-08T00:10:36.696Z,58.90
2018-07-08T00:11:09.755Z,58.90
2018-07-08T00:11:42.570Z,59.00
2018-07-08T00:12:16.292Z,59.00
2018-07-08T00:12:49.333Z,59.00
2018-07-08T00:13:22.373Z,59.00
2018-07-08T00:13:55.404Z,59.10
2018-07-08T00:14:29.233Z,59.30
2018-07-08T00:15:02.284Z,59.30
2018-07-08T00:15:35.306Z,59.30
2018-07-08T00:16:08.360Z,59.30
2018-07-08T00:16:41.385Z,59.10
2018-07-08T00:17:15.189Z,59.10
2018-07-08T00:17:48.224Z,59.10
2018-07-08T00:18:21.280Z,59.10
2018-07-08T00:18:54.325Z,59.10
2018-07-08T00:19:27.363Z,59.10
2018-07-08T00:20:00.436Z,59.20
2018-07-08T00:20:33.471Z,59.20
2018-07-08T00:21:06.523Z,59.30
2018-07-08T00:21:39.570Z,59.30
2018-07-08T00:22:12.627Z,59.40
2018-07-08T00:22:45.675Z,59.40
2018-07-08T00:23:18.708Z,59.60
2018-07-08T00:23:51.763Z,59.40
2018-07-08T00:24:24.814Z,59.30
2018-07-08T00:24:57.851Z,59.40
2018-07-08T00:25:30.902Z,59.30
2018-07-08T00:26:03.924Z,59.30
2018-07-08T00:26:36.984Z,59.20
2018-07-08T00:27:10.016Z,59.20
2018-07-08T00:27:43.816Z,59.30
2018-07-08T00:28:17.633Z,59.30
2018-07-08T00:28:50.688Z,59.30
2018-07-08T00:29:24.504Z,59.20
2018-07-08T00:29:57.535Z,59.20
2018-07-08T00:30:30.572Z,59.20
2018-07-08T00:31:04.385Z,59.30
2018-07-08T00:31:37.407Z,59.30
2018-07-08T00:32:10.457Z,59.30
2018-07-08T00:32:43.480Z,59.30
2018-07-08T00:33:16.525Z,59.40
2018-07-08T00:33:50.335Z,59.50
2018-07-08T00:34:23.381Z,59.50
2018-07-08T00:34:56.443Z,59.40
2018-07-08T00:35:29.474Z,59.50
2018-07-08T00:36:02.527Z,59.50
2018-07-08T00:36:35.547Z,59.60
2018-07-08T00:37:08.589Z,59.70
2018-07-08T00:37:41.617Z,59.60
2018-07-08T00:38:14.239Z,59.50
2018-07-08T00:38:47.307Z,59.70
2018-07-08T00:39:20.352Z,59.70
2018-07-08T00:39:54.215Z,59.80
2018-07-08T00:40:27.988Z,59.90
2018-07-08T00:41:01.033Z,59.80
2018-07-08T00:41:34.062Z,59.80
2018-07-08T00:42:07.124Z,59.90
2018-07-08T00:42:40.177Z,59.90
2018-07-08T00:43:13.233Z,59.80
2018-07-08T00:43:46.254Z,59.80
2018-07-08T00:44:19.315Z,59.90
2018-07-08T00:44:53.180Z,60.00
2018-07-08T00:45:26.218Z,60.10
2018-07-08T00:46:00.032Z,60.20
2018-07-08T00:46:33.060Z,61.00
2018-07-08T00:47:06.080Z,60.20
2018-07-08T00:47:39.120Z,60.30
2018-07-08T00:48:12.144Z,60.20
2018-07-08T00:48:45.180Z,60.40
2018-07-08T00:49:18.987Z,60.60
2018-07-08T00:49:52.809Z,60.70
2018-07-08T00:50:26.604Z,61.00
2018-07-08T00:50:59.646Z,61.00
2018-07-08T00:51:33.456Z,61.00
2018-07-08T00:52:06.507Z,61.00
2018-07-08T00:52:40.328Z,61.10
2018-07-08T00:53:13.354Z,61.10
2018-07-08T00:53:46.599Z,61.10
2018-07-08T00:54:19.640Z,61.00
2018-07-08T00:54:52.688Z,61.10
2018-07-08T00:55:25.722Z,61.00
2018-07-08T00:55:58.751Z,61.00
2018-07-08T00:56:31.801Z,61.00
2018-07-08T00:57:04.968Z,60.80
2018-07-08T00:57:38.005Z,60.80
2018-07-08T00:58:11.044Z,60.90
2018-07-08T00:58:44.089Z,60.90
2018-07-08T00:59:17.132Z,60.90
2018-07-08T00:59:50.189Z,61.00
2018-07-08T01:00:23.227Z,61.00
2018-07-08T01:00:56.257Z,60.90
2018-07-08T01:01:29.311Z,61.00
2018-07-08T01:02:02.351Z,61.10
2018-07-08T01:02:35.380Z,61.00
2018-07-08T01:03:08.426Z,61.10
2018-07-08T01:03:42.252Z,61.10
2018-07-08T01:04:15.290Z,61.10
2018-07-08T01:04:48.349Z,61.10
2018-07-08T01:05:21.398Z,61.10
2018-07-08T01:05:54.418Z,61.00
2018-07-08T01:06:27.456Z,61.10
2018-07-08T01:07:00.500Z,61.00
2018-07-08T01:07:34.323Z,61.20
2018-07-08T01:08:07.412Z,61.30
2018-07-08T01:08:40.395Z,61.10
2018-07-08T01:09:13.434Z,61.30
2018-07-08T01:09:46.461Z,61.40
2018-07-08T01:10:20.267Z,61.30
2018-07-08T01:10:53.288Z,61.30
2018-07-08T01:11:26.316Z,61.50
2018-07-08T01:11:59.366Z,61.40
2018-07-08T01:12:32.421Z,61.40
2018-07-08T01:13:05.470Z,61.30
2018-07-08T01:13:38.503Z,61.20
2018-07-08T01:14:11.081Z,61.30
2018-07-08T01:14:44.045Z,61.30
2018-07-08T01:15:17.931Z,60.70
2018-07-08T01:15:51.206Z,61.60
2018-07-08T01:16:24.159Z,61.50
2018-07-08T01:16:56.758Z,61.50
2018-07-08T01:17:29.825Z,61.60
2018-07-08T01:18:03.081Z,61.30
2018-07-08T01:18:36.364Z,61.40
2018-07-08T01:19:08.856Z,61.40
2018-07-08T01:19:41.392Z,61.60
2018-07-08T01:20:14.689Z,61.50
2018-07-08T01:20:47.219Z,61.50
2018-07-08T01:21:19.762Z,61.70
2018-07-08T01:21:52.264Z,61.50
2018-07-08T01:22:25.985Z,61.60
2018-07-08T01:22:59.333Z,61.60
2018-07-08T01:23:31.838Z,61.60
2018-07-08T01:24:04.356Z,61.60
2018-07-08T01:24:37.627Z,61.70
2018-07-08T01:25:10.144Z,61.70
2018-07-08T01:25:42.670Z,61.90
2018-07-08T01:26:15.170Z,61.90
2018-07-08T01:26:47.673Z,62.00
2018-07-08T01:27:20.163Z,61.80
2018-07-08T01:27:52.680Z,61.80
2018-07-08T01:28:25.180Z,61.70
2018-07-08T01:28:58.138Z,61.80
2018-07-08T01:29:30.727Z,61.80
2018-07-08T01:30:03.677Z,61.80
2018-07-08T01:30:36.714Z,61.90
2018-07-08T01:31:09.743Z,62.00
2018-07-08T01:31:43.552Z,62.20
2018-07-08T01:32:16.580Z,62.10
2018-07-08T01:32:49.639Z,62.30
2018-07-08T01:33:22.669Z,62.20
2018-07-08T01:33:55.708Z,62.20
2018-07-08T01:34:28.756Z,62.30
2018-07-08T01:35:01.813Z,62.40
2018-07-08T01:35:34.419Z,62.40
2018-07-08T01:36:06.917Z,62.60
2018-07-08T01:36:40.197Z,62.80
2018-07-08T01:37:13.155Z,62.90
2018-07-08T01:37:46.196Z,62.80
2018-07-08T01:38:18.807Z,62.80
2018-07-08T01:38:51.315Z,62.60
2018-07-08T01:39:23.839Z,62.70
2018-07-08T01:39:56.355Z,62.70
2018-07-08T01:40:28.874Z,62.70
2018-07-08T01:41:01.416Z,62.70
2018-07-08T01:41:33.971Z,62.80
2018-07-08T01:42:06.886Z,62.80
2018-07-08T01:42:39.352Z,62.70
2018-07-08T01:43:11.870Z,62.90
2018-07-08T01:43:44.381Z,62.90
2018-07-08T01:44:16.907Z,62.90
2018-07-08T01:44:50.475Z,63.20
2018-07-08T01:45:24.205Z,63.20
2018-07-08T01:45:57.252Z,63.10
2018-07-08T01:46:31.070Z,63.00
2018-07-08T01:47:04.923Z,63.10
2018-07-08T01:47:38.727Z,63.00
2018-07-08T01:48:11.753Z,63.00
2018-07-08T01:48:44.775Z,62.90
2018-07-08T01:49:18.575Z,62.90
2018-07-08T01:49:52.390Z,62.80
2018-07-08T01:50:25.440Z,62.90
2018-07-08T01:50:58.487Z,62.90
2018-07-08T01:51:31.533Z,62.80
2018-07-08T01:52:04.572Z,62.90
2018-07-08T01:52:37.620Z,63.00
2018-07-08T01:53:10.669Z,62.80
2018-07-08T01:53:43.260Z,62.80
2018-07-08T01:54:16.221Z,62.70
2018-07-08T01:54:48.817Z,62.90
2018-07-08T01:55:21.351Z,62.90
2018-07-08T01:55:53.875Z,62.80
2018-07-08T01:56:26.391Z,62.70
2018-07-08T01:56:59.667Z,62.80
2018-07-08T01:57:32.957Z,62.80
2018-07-08T01:58:05.492Z,62.90
2018-07-08T01:58:38.451Z,62.80
2018-07-08T01:59:11.506Z,62.80
2018-07-08T01:59:44.548Z,62.90
2018-07-08T02:00:17.581Z,62.90
2018-07-08T02:00:50.620Z,62.80
2018-07-08T02:01:23.656Z,62.90
2018-07-08T02:01:56.692Z,62.90
2018-07-08T02:02:29.724Z,62.90
2018-07-08T02:03:03.511Z,62.90
2018-07-08T02:03:37.307Z,62.80
2018-07-08T02:04:11.100Z,63.00
2018-07-08T02:04:44.888Z,62.90
2018-07-08T02:05:18.700Z,62.80
2018-07-08T02:05:51.756Z,62.80
2018-07-08T02:06:24.778Z,62.80
2018-07-08T02:06:57.833Z,63.10
2018-07-08T02:07:31.611Z,62.90
2018-07-08T02:08:05.404Z,62.90
2018-07-08T02:08:38.433Z,63.00
2018-07-08T02:09:11.589Z,62.90
2018-07-08T02:09:45.391Z,63.20
2018-07-08T02:10:18.432Z,63.20
2018-07-08T02:10:51.492Z,63.00
2018-07-08T02:11:24.525Z,63.00
2018-07-08T02:11:57.555Z,63.00
2018-07-08T02:12:30.588Z,63.00
2018-07-08T02:13:03.634Z,63.00
2018-07-08T02:13:36.664Z,63.00
2018-07-08T02:14:09.704Z,63.20
2018-07-08T02:14:42.745Z,63.00
2018-07-08T02:15:15.764Z,63.00
2018-07-08T02:15:48.819Z,63.00
2018-07-08T02:16:21.859Z,62.90
2018-07-08T02:16:54.903Z,63.20
2018-07-08T02:17:28.719Z,63.20
2018-07-08T02:18:01.767Z,63.20
2018-07-08T02:18:34.797Z,63.10
2018-07-08T02:19:07.836Z,63.00
2018-07-08T02:19:41.644Z,63.10
2018-07-08T02:20:14.669Z,63.10
2018-07-08T02:20:47.708Z,63.10
2018-07-08T02:21:20.751Z,63.00
2018-07-08T02:21:53.784Z,63.00
2018-07-08T02:22:26.840Z,62.80
2018-07-08T02:22:59.440Z,62.80
2018-07-08T02:23:33.186Z,62.90
2018-07-08T02:24:06.990Z,63.00
2018-07-08T02:24:40.025Z,62.90
2018-07-08T02:25:13.071Z,63.00
2018-07-08T02:25:46.102Z,63.20
2018-07-08T02:26:19.935Z,63.10
2018-07-08T02:26:52.971Z,63.10
2018-07-08T02:27:26.033Z,63.00
2018-07-08T02:27:59.071Z,63.20
2018-07-08T02:28:32.128Z,63.00
2018-07-08T02:29:05.159Z,63.00
2018-07-08T02:29:38.957Z,63.00
2018-07-08T02:30:11.991Z,63.00
2018-07-08T02:30:45.029Z,64.00
2018-07-08T02:31:18.062Z,62.80
2018-07-08T02:31:50.658Z,62.90
2018-07-08T02:32:23.624Z,62.90
2018-07-08T02:32:56.823Z,63.00
2018-07-08T02:33:29.864Z,63.00
2018-07-08T02:34:02.903Z,63.80
2018-07-08T02:34:36.715Z,63.00
2018-07-08T02:35:09.315Z,63.00
2018-07-08T02:35:41.819Z,62.90
2018-07-08T02:36:14.788Z,63.00
2018-07-08T02:36:47.835Z,62.80
2018-07-08T02:37:20.879Z,63.00
2018-07-08T02:37:53.921Z,62.90
2018-07-08T02:38:26.952Z,63.00
2018-07-08T02:38:59.539Z,62.90
2018-07-08T02:39:32.039Z,63.10
2018-07-08T02:40:05.005Z,63.20
2018-07-08T02:40:39.188Z,63.50
2018-07-08T02:41:12.164Z,63.50
2018-07-08T02:41:45.977Z,63.20
2018-07-08T02:42:19.018Z,63.20
2018-07-08T02:42:52.059Z,63.10
2018-07-08T02:43:25.097Z,63.20
2018-07-08T02:43:58.906Z,63.00
2018-07-08T02:44:32.688Z,62.90
2018-07-08T02:45:06.480Z,62.90
2018-07-08T02:45:39.524Z,62.90
2018-07-08T02:46:12.564Z,62.80
2018-07-08T02:46:45.628Z,62.70
2018-07-08T02:47:18.662Z,62.80
2018-07-08T02:47:52.461Z,62.50
2018-07-08T02:48:26.262Z,62.80
2018-07-08T02:48:59.293Z,62.80
2018-07-08T02:49:32.345Z,62.90
2018-07-08T02:50:05.368Z,62.80
2018-07-08T02:50:39.168Z,62.70
2018-07-08T02:51:12.205Z,62.60
2018-07-08T02:51:45.266Z,62.50
2018-07-08T02:52:18.289Z,62.70
2018-07-08T02:52:51.352Z,62.80
2018-07-08T02:53:24.396Z,62.60
2018-07-08T02:53:57.435Z,62.50
2018-07-08T02:54:30.463Z,62.50
2018-07-08T02:55:03.512Z,62.50
2018-07-08T02:55:36.584Z,62.40
2018-07-08T02:56:09.604Z,62.50
2018-07-08T02:56:43.415Z,62.40
2018-07-08T02:57:16.444Z,62.30
2018-07-08T02:57:49.497Z,62.20
2018-07-08T02:58:22.532Z,62.20
2018-07-08T02:58:56.366Z,62.40
2018-07-08T02:59:29.398Z,62.30
2018-07-08T03:00:02.434Z,62.20
2018-07-08T03:00:35.464Z,62.30
2018-07-08T03:01:09.266Z,62.10
2018-07-08T03:01:42.317Z,62.20
2018-07-08T03:02:16.149Z,62.10
2018-07-08T03:02:49.948Z,62.20
2018-07-08T03:03:23.020Z,62.10
2018-07-08T03:03:56.809Z,62.30
2018-07-08T03:04:29.851Z,62.30
2018-07-08T03:05:03.674Z,62.40
2018-07-08T03:05:36.710Z,62.20
2018-07-08T03:06:10.517Z,62.20
2018-07-08T03:06:43.568Z,62.30
2018-07-08T03:07:16.631Z,62.20
2018-07-08T03:07:49.679Z,62.40
2018-07-08T03:08:22.709Z,62.30
2018-07-08T03:08:55.752Z,62.30
2018-07-08T03:09:28.788Z,62.20
2018-07-08T03:10:02.028Z,62.20
2018-07-08T03:10:35.055Z,62.20
2018-07-08T03:11:08.086Z,62.30
2018-07-08T03:11:41.905Z,62.20
2018-07-08T03:12:14.949Z,62.20
2018-07-08T03:12:48.752Z,62.10
2018-07-08T03:13:21.796Z,62.10
2018-07-08T03:13:54.813Z,62.10
2018-07-08T03:14:27.866Z,62.10
2018-07-08T03:15:01.673Z,62.20
2018-07-08T03:15:34.697Z,62.20
2018-07-08T03:16:08.496Z,62.20
2018-07-08T03:16:41.543Z,62.10
2018-07-08T03:17:14.566Z,62.20
2018-07-08T03:17:47.596Z,62.00
2018-07-08T03:18:20.624Z,62.10
2018-07-08T03:18:54.435Z,62.00
2018-07-08T03:19:27.473Z,62.00
2018-07-08T03:20:00.492Z,62.10
2018-07-08T03:20:33.519Z,62.10
2018-07-08T03:21:06.559Z,62.20
2018-07-08T03:21:39.616Z,62.30
2018-07-08T03:22:12.647Z,62.30
2018-07-08T03:22:45.697Z,62.40
2018-07-08T03:23:18.713Z,62.30
2018-07-08T03:23:51.732Z,62.30
2018-07-08T03:24:24.761Z,62.30
2018-07-08T03:24:57.808Z,62.40
2018-07-08T03:25:30.847Z,62.40
2018-07-08T03:26:03.871Z,62.40
2018-07-08T03:26:36.923Z,62.70
2018-07-08T03:27:09.951Z,62.50
2018-07-08T03:27:42.991Z,62.50
2018-07-08T03:28:16.037Z,62.60
2018-07-08T03:28:49.063Z,62.70
2018-07-08T03:29:22.098Z,62.60
2018-07-08T03:29:55.128Z,62.50
2018-07-08T03:30:28.164Z,62.50
2018-07-08T03:31:01.193Z,62.50
2018-07-08T03:31:34.217Z,62.60
2018-07-08T03:32:08.894Z,62.50
2018-07-08T03:32:41.948Z,62.50
2018-07-08T03:33:14.976Z,62.40
2018-07-08T03:33:48.004Z,62.30
2018-07-08T03:34:21.048Z,62.40
2018-07-08T03:34:54.091Z,62.30
2018-07-08T03:35:27.125Z,62.40
2018-07-08T03:36:00.320Z,62.40
2018-07-08T03:36:33.359Z,62.40
2018-07-08T03:37:06.404Z,62.40
2018-07-08T03:37:39.433Z,62.40
2018-07-08T03:38:12.611Z,62.40
2018-07-08T03:38:45.646Z,62.30
2018-07-08T03:39:18.700Z,62.60
2018-07-08T03:39:51.731Z,62.40
2018-07-08T03:40:24.769Z,63.40
2018-07-08T03:40:57.817Z,62.50
2018-07-08T03:41:30.843Z,62.50
2018-07-08T03:42:03.896Z,62.60
2018-07-08T03:42:37.700Z,62.60
2018-07-08T03:43:10.727Z,62.50
2018-07-08T03:43:43.977Z,62.70
2018-07-08T03:44:17.008Z,62.90
2018-07-08T03:44:50.805Z,62.60
2018-07-08T03:45:23.841Z,62.60
2018-07-08T03:45:56.859Z,62.60
2018-07-08T03:46:29.907Z,62.50
2018-07-08T03:47:02.945Z,62.70
2018-07-08T03:47:35.975Z,62.80
2018-07-08T03:48:09.776Z,62.70
2018-07-08T03:48:42.814Z,62.80
2018-07-08T03:49:15.852Z,62.60
2018-07-08T03:49:48.935Z,62.70
2018-07-08T03:50:21.973Z,62.80
2018-07-08T03:50:55.776Z,62.90
2018-07-08T03:51:28.807Z,62.90
2018-07-08T03:52:01.852Z,62.80
2018-07-08T03:52:34.880Z,62.90
2018-07-08T03:53:07.929Z,62.90
2018-07-08T03:53:40.968Z,62.80
2018-07-08T03:54:14.029Z,62.90
2018-07-08T03:54:47.296Z,62.80
2018-07-08T03:55:21.132Z,62.60
2018-07-08T03:55:54.152Z,62.80
2018-07-08T03:56:27.220Z,62.80
2018-07-08T03:57:01.052Z,62.90
2018-07-08T03:57:34.077Z,62.90
2018-07-08T03:58:07.123Z,62.90
2018-07-08T03:58:40.189Z,62.80
2018-07-08T03:59:13.224Z,62.80
2018-07-08T03:59:47.027Z,62.80
2018-07-08T04:00:20.052Z,62.80
2018-07-08T04:00:53.292Z,62.90
2018-07-08T04:01:26.336Z,62.90
2018-07-08T04:01:59.368Z,62.70
2018-07-08T04:02:32.383Z,62.60
2018-07-08T04:03:06.188Z,62.80
2018-07-08T04:03:39.220Z,62.80
2018-07-08T04:04:12.278Z,62.70
2018-07-08T04:04:45.304Z,62.70
2018-07-08T04:05:19.115Z,62.80
2018-07-08T04:05:52.646Z,62.80
2018-07-08T04:06:25.693Z,62.60
2018-07-08T04:06:59.480Z,62.60
2018-07-08T04:07:33.286Z,62.40
2018-07-08T04:08:06.313Z,62.40
2018-07-08T04:08:39.361Z,62.40
2018-07-08T04:09:12.397Z,62.60
2018-07-08T04:09:46.368Z,62.70
2018-07-08T04:10:20.165Z,62.70
2018-07-08T04:10:53.198Z,62.60
2018-07-08T04:11:26.246Z,62.70
2018-07-08T04:11:59.287Z,62.50
2018-07-08T04:12:33.120Z,62.80
2018-07-08T04:13:06.295Z,62.80
2018-07-08T04:13:40.093Z,63.10
2018-07-08T04:14:13.114Z,62.70
2018-07-08T04:14:46.164Z,62.90
2018-07-08T04:15:19.272Z,62.80
2018-07-08T04:15:52.245Z,62.90
2018-07-08T04:16:26.048Z,62.70
2018-07-08T04:16:59.090Z,62.70
2018-07-08T04:17:32.145Z,62.80
2018-07-08T04:18:05.206Z,62.80
2018-07-08T04:18:38.229Z,62.80
2018-07-08T04:19:12.027Z,62.60
2018-07-08T04:19:45.824Z,62.60
2018-07-08T04:20:19.627Z,62.60
2018-07-08T04:20:53.424Z,62.70
2018-07-08T04:21:26.460Z,62.70
2018-07-08T04:21:59.512Z,62.70
2018-07-08T04:22:32.560Z,62.90
2018-07-08T04:23:05.601Z,62.70
2018-07-08T04:23:38.644Z,62.70
2018-07-08T04:24:11.695Z,62.80
2018-07-08T04:24:44.724Z,62.80
2018-07-08T04:25:18.563Z,63.10
2018-07-08T04:25:51.587Z,63.10
2018-07-08T04:26:25.390Z,63.10
2018-07-08T04:26:59.192Z,62.90
2018-07-08T04:27:32.249Z,63.00
2018-07-08T04:28:06.052Z,62.80
2018-07-08T04:28:39.080Z,62.80
2018-07-08T04:29:12.127Z,63.70
2018-07-08T04:29:45.158Z,62.90
2018-07-08T04:30:18.992Z,63.80
2018-07-08T04:30:52.744Z,63.00
2018-07-08T04:31:26.556Z,62.70
2018-07-08T04:31:59.613Z,62.70
2018-07-08T04:32:34.251Z,62.90
2018-07-08T04:33:08.521Z,62.80
2018-07-08T04:33:41.552Z,62.80
2018-07-08T04:34:14.593Z,62.80
2018-07-08T04:34:48.408Z,62.60
2018-07-08T04:35:21.444Z,62.70
2018-07-08T04:35:55.244Z,62.70
2018-07-08T04:36:28.272Z,62.70
2018-07-08T04:37:01.300Z,62.70
2018-07-08T04:37:35.113Z,62.80
2018-07-08T04:38:08.914Z,62.80
2018-07-08T04:38:41.952Z,62.80
2018-07-08T04:39:15.759Z,62.80
2018-07-08T04:39:48.808Z,62.80
2018-07-08T04:40:21.839Z,62.60
2018-07-08T04:40:54.880Z,62.70
2018-07-08T04:41:28.687Z,62.60
2018-07-08T04:42:01.782Z,62.60
2018-07-08T04:42:34.828Z,62.40
2018-07-08T04:43:08.065Z,62.40
2018-07-08T04:43:41.327Z,62.40
2018-07-08T04:44:14.398Z,62.40
2018-07-08T04:44:47.420Z,62.60
2018-07-08T04:45:20.484Z,62.60
2018-07-08T04:45:53.532Z,62.40
2018-07-08T04:46:26.601Z,62.60
2018-07-08T04:46:59.647Z,62.50
2018-07-08T04:47:32.684Z,62.30
2018-07-08T04:48:05.738Z,62.60
2018-07-08T04:48:38.772Z,62.40
2018-07-08T04:49:11.859Z,62.50
2018-07-08T04:49:45.623Z,62.50
2018-07-08T04:50:18.672Z,62.50
2018-07-08T04:50:51.773Z,62.40
2018-07-08T04:51:25.563Z,62.40
2018-07-08T04:51:58.596Z,62.40
2018-07-08T04:52:31.613Z,62.40
2018-07-08T04:53:04.668Z,62.30
2018-07-08T04:53:38.498Z,62.50
2018-07-08T04:54:11.545Z,62.50
2018-07-08T04:54:45.361Z,62.50
2018-07-08T04:55:18.407Z,62.50
2018-07-08T04:55:51.434Z,62.40
2018-07-08T04:56:24.480Z,63.30
2018-07-08T04:56:57.508Z,62.40
2018-07-08T04:57:30.532Z,62.60
2018-07-08T04:58:03.588Z,62.50
2018-07-08T04:58:37.389Z,62.70
2018-07-08T04:59:11.180Z,62.50
2018-07-08T04:59:44.974Z,62.50
2018-07-08T05:00:18.008Z,62.40
2018-07-08T05:00:51.116Z,62.40
2018-07-08T05:01:24.095Z,62.50
2018-07-08T05:01:57.898Z,62.60
2018-07-08T05:02:31.007Z,62.60
2018-07-08T05:03:04.184Z,62.50
2018-07-08T05:03:37.220Z,62.50
2018-07-08T05:04:10.255Z,62.70
2018-07-08T05:04:43.287Z,62.60
2018-07-08T05:05:17.095Z,62.60
2018-07-08T05:05:50.148Z,62.60
2018-07-08T05:06:23.183Z,62.70
2018-07-08T05:06:56.213Z,62.60
2018-07-08T05:07:29.247Z,62.60
2018-07-08T05:08:02.284Z,62.50
2018-07-08T05:08:35.332Z,62.50
2018-07-08T05:09:08.357Z,62.60
2018-07-08T05:09:42.277Z,62.90
2018-07-08T05:10:15.310Z,62.90
2018-07-08T05:10:49.072Z,62.60
2018-07-08T05:11:22.120Z,62.70
2018-07-08T05:11:56.021Z,62.60
2018-07-08T05:12:29.050Z,62.60
2018-07-08T05:13:03.003Z,62.50
2018-07-08T05:13:36.036Z,62.40
2018-07-08T05:14:09.075Z,62.50
2018-07-08T05:14:42.092Z,62.60
2018-07-08T05:15:15.899Z,62.70
2018-07-08T05:15:48.941Z,62.80
2018-07-08T05:16:21.976Z,62.60
2018-07-08T05:16:55.861Z,62.70
2018-07-08T05:17:28.899Z,62.70
2018-07-08T05:18:01.972Z,62.70
2018-07-08T05:18:35.015Z,62.50
2018-07-08T05:19:08.056Z,62.40
2018-07-08T05:19:41.087Z,62.60
2018-07-08T05:20:14.123Z,62.50
2018-07-08T05:20:47.182Z,62.50
2018-07-08T05:21:20.217Z,62.50
2018-07-08T05:21:53.252Z,62.50
2018-07-08T05:22:26.297Z,62.40
2018-07-08T05:22:59.354Z,62.50
2018-07-08T05:23:33.145Z,62.40
2018-07-08T05:24:06.939Z,62.40
2018-07-08T05:24:40.738Z,62.50
2018-07-08T05:25:14.541Z,62.40
2018-07-08T05:25:47.595Z,62.40
2018-07-08T05:26:20.621Z,62.30
2018-07-08T05:26:53.656Z,62.40
2018-07-08T05:27:27.444Z,62.30
2018-07-08T05:28:00.505Z,62.30
2018-07-08T05:28:33.527Z,62.40
2018-07-08T05:29:06.606Z,62.50
2018-07-08T05:29:39.787Z,62.20
2018-07-08T05:30:13.598Z,62.20
2018-07-08T05:30:46.649Z,62.30
2018-07-08T05:31:19.692Z,62.20
2018-07-08T05:31:53.504Z,62.10
2018-07-08T05:32:27.910Z,62.10
2018-07-08T05:33:00.974Z,61.90
2018-07-08T05:33:34.014Z,61.90
2018-07-08T05:34:07.129Z,62.90
2018-07-08T05:34:40.947Z,61.70
2018-07-08T05:35:13.981Z,61.80
2018-07-08T05:35:47.133Z,61.80
2018-07-08T05:36:20.098Z,61.70
2018-07-08T05:36:53.131Z,61.70
2018-07-08T05:37:26.174Z,61.60
2018-07-08T05:37:59.986Z,61.70
2018-07-08T05:38:33.054Z,61.70
2018-07-08T05:39:06.869Z,61.70
2018-07-08T05:39:41.176Z,61.70
2018-07-08T05:40:14.983Z,61.90
2018-07-08T05:40:48.033Z,61.90
2018-07-08T05:41:21.105Z,61.60
2018-07-08T05:41:54.366Z,61.60
2018-07-08T05:42:27.438Z,61.90
2018-07-08T05:43:00.720Z,61.70
2018-07-08T05:43:34.802Z,61.50
2018-07-08T05:44:07.869Z,61.50
2018-07-08T05:44:40.919Z,61.40
2018-07-08T05:45:13.984Z,61.30
2018-07-08T05:45:47.033Z,61.60
2018-07-08T05:46:20.841Z,61.40
2018-07-08T05:46:53.899Z,61.40
2018-07-08T05:47:27.729Z,61.50
2018-07-08T05:48:01.048Z,61.50
2018-07-08T05:48:34.112Z,61.50
2018-07-08T05:49:07.188Z,61.60
2018-07-08T05:49:40.239Z,61.60
2018-07-08T05:50:13.351Z,61.50
2018-07-08T05:50:46.374Z,61.40
2018-07-08T05:51:19.478Z,61.60
2018-07-08T05:51:53.769Z,61.70
2018-07-08T05:52:30.751Z,61.70
2018-07-08T05:53:03.810Z,61.90
2018-07-08T05:53:36.887Z,62.10
2018-07-08T05:54:09.959Z,61.70
2018-07-08T05:54:43.032Z,61.60
2018-07-08T05:55:16.864Z,61.70
2018-07-08T05:55:49.910Z,61.80
2018-07-08T05:57:03.002Z,61.70
2018-07-08T05:57:39.066Z,61.70
2018-07-08T05:58:12.165Z,61.50
2018-07-08T05:58:46.231Z,61.50
2018-07-08T05:59:19.289Z,61.40
2018-07-08T05:59:53.495Z,61.40
2018-07-08T06:00:26.663Z,61.30
2018-07-08T06:01:00.527Z,60.90
2018-07-08T06:01:34.248Z,60.90
2018-07-08T06:02:08.049Z,61.00
2018-07-08T06:02:41.911Z,61.00
2018-07-08T06:03:15.982Z,60.60
2018-07-08T06:03:49.401Z,60.60
2018-07-08T06:04:22.490Z,60.30
2018-07-08T06:04:55.546Z,60.40
2018-07-08T06:05:28.638Z,61.60
2018-07-08T06:06:02.479Z,60.30
2018-07-08T06:06:35.545Z,60.30
2018-07-08T06:07:08.842Z,60.50
2018-07-08T06:07:41.932Z,60.40
2018-07-08T06:08:15.065Z,60.40
2018-07-08T06:08:49.685Z,60.20
2018-07-08T06:09:23.459Z,60.20
2018-07-08T06:10:04.373Z,60.10
2018-07-08T06:10:44.968Z,60.10
2018-07-08T06:11:22.955Z,60.20
2018-07-08T06:12:41.416Z,60.00
2018-07-08T06:13:14.500Z,60.00
2018-07-08T06:13:47.574Z,59.90
2018-07-08T06:14:21.500Z,59.80
2018-07-08T06:14:56.177Z,59.40
2018-07-08T06:15:29.310Z,59.30
2018-07-08T06:16:03.204Z,59.70
2018-07-08T06:16:37.022Z,59.60
2018-07-08T06:17:11.037Z,59.50
2018-07-08T06:17:44.255Z,59.60
2018-07-08T06:18:18.094Z,59.60
2018-07-08T06:18:51.857Z,59.60
2018-07-08T06:19:24.883Z,59.70
2018-07-08T06:19:58.000Z,59.70
2018-07-08T06:20:31.148Z,59.60
2018-07-08T06:21:05.469Z,59.40
2018-07-08T06:21:39.276Z,59.40
2018-07-08T06:22:13.482Z,59.60
2018-07-08T06:22:48.301Z,59.40
2018-07-08T06:23:22.466Z,59.20
2018-07-08T06:23:55.664Z,59.00
2018-07-08T06:24:30.653Z,59.30
2018-07-08T06:25:11.588Z,59.10
2018-07-08T06:25:47.465Z,58.70
2018-07-08T06:27:26.951Z,59.10
2018-07-08T06:28:02.236Z,58.70
2018-07-08T06:28:40.345Z,59.00
2018-07-08T06:30:05.276Z,58.30
2018-07-08T06:32:32.467Z,58.70
2018-07-08T06:34:15.563Z,58.80
2018-07-08T06:39:52.960Z,58.80
2018-07-08T06:41:18.953Z,58.50
2018-07-08T06:44:05.839Z,58.50
2018-07-08T08:04:52.850Z,51.40
2018-07-08T08:05:43.240Z,52.30
2018-07-08T08:06:34.149Z,51.80
2018-07-08T08:25:17.801Z,47.80
2018-07-08T08:25:51.118Z,47.50
2018-07-08T08:27:20.040Z,49.00
2018-07-08T08:27:57.690Z,49.10
2018-07-08T08:28:35.389Z,46.80
2018-07-08T08:34:00.171Z,48.90
2018-07-08T08:39:15.781Z,48.00
2018-07-08T08:39:48.904Z,47.80
2018-07-08T08:40:42.338Z,47.40
2018-07-08T08:41:17.456Z,47.80
2018-07-08T08:41:54.554Z,47.00
2018-07-08T08:42:45.176Z,46.20
2018-07-08T08:43:18.756Z,47.80
2018-07-08T08:43:59.503Z,47.70
2018-07-08T08:44:34.355Z,47.60
2018-07-08T08:45:37.444Z,47.50
2018-07-08T08:46:11.803Z,47.10
2018-07-08T08:50:59.922Z,44.80
2018-07-08T08:53:43.772Z,46.00
2018-07-08T08:54:22.199Z,46.30
2018-07-08T09:23:31.225Z,45.30
2018-07-08T09:24:05.134Z,45.60
2018-07-08T09:24:38.132Z,45.60
2018-07-08T09:25:11.941Z,42.30
2018-07-08T09:25:46.678Z,42.30
2018-07-08T09:26:19.717Z,44.80
2018-07-08T09:26:52.757Z,43.80
2018-07-08T09:27:27.804Z,43.10
2018-07-08T09:28:00.840Z,44.80
2018-07-08T09:28:34.689Z,43.20
2018-07-08T09:29:08.383Z,43.10
2018-07-08T09:29:41.458Z,43.80
2018-07-08T09:30:14.537Z,43.30
2018-07-08T09:30:47.600Z,42.90
2018-07-08T09:31:21.436Z,44.40
2018-07-08T09:31:55.544Z,44.40
2018-07-08T09:32:28.639Z,44.50
2018-07-08T09:33:01.685Z,44.50
2018-07-08T09:33:34.715Z,43.30
2018-07-08T09:34:07.765Z,43.90
2018-07-08T09:34:40.816Z,44.20
2018-07-08T09:35:14.630Z,44.70
2018-07-08T09:40:50.249Z,43.60
2018-07-08T09:41:23.573Z,45.00
2018-07-08T09:44:13.797Z,43.40
2018-07-08T09:44:46.898Z,44.40
2018-07-08T09:45:19.978Z,44.70
2018-07-08T09:45:53.105Z,42.30
2018-07-08T09:47:07.973Z,43.90
2018-07-08T09:47:42.281Z,42.30
2018-07-08T09:48:15.321Z,41.10
2018-07-08T09:48:53.098Z,40.70
2018-07-08T09:49:26.909Z,40.00
2018-07-08T09:49:59.961Z,40.10
2018-07-08T09:50:36.707Z,42.60
2018-07-08T09:51:11.248Z,42.50
2018-07-08T09:51:44.352Z,40.00
2018-07-08T09:52:17.355Z,41.50
2018-07-08T09:52:50.400Z,39.30
2018-07-08T09:53:23.464Z,42.10
2018-07-08T09:53:56.513Z,40.10
2018-07-08T09:54:29.583Z,38.00
2018-07-08T09:55:02.633Z,41.10
2018-07-08T09:55:35.691Z,42.70
2018-07-08T09:56:08.732Z,41.20
2018-07-08T09:56:41.777Z,40.20
2018-07-08T09:57:15.592Z,43.20